Time;durP1;ratioP1;P1;durP2;ratioP2;P2;SDS_P1;SDS_P2;PMS_P1;PMS_P2;Temp;Humidity;BMP_temperature;BMP_pressure;BME280_temperature;BME280_humidity;BME280_pressure;Samples;Min_cycle;Max_cycle;Signal;HPM_P1;HPM_P2
2023/02/12 00:00:59;;;;;;;9.40;3.15;;;;;;;;;;2081044;28;20029;-76
2023/02/12 00:02:18;;;;;;;5.55;2.70;;;;;;;;;;2083253;28;20034;-76
2023/02/12 00:03:38;;;;;;;5.03;2.80;;;;;;;;;;2083259;28;20426;-76
2023/02/12 00:04:57;;;;;;;2.30;2.10;;;;;;;;;;2088894;28;20490;-77
2023/02/12 00:06:16;;;;;;;5.38;2.17;;;;;;;;;;2091156;28;20494;-76
2023/02/12 00:07:38;;;;;;;4.30;2.20;;;;;;;;;;2085818;28;20033;-76
2023/02/12 00:08:58;;;;;;;4.70;2.42;;;;;;;;;;2076421;28;20029;-76
2023/02/12 00:10:17;;;;;;;6.88;2.25;;;;;;;;;;2081594;28;20026;-75
2023/02/12 00:11:36;;;;;;;4.28;2.03;;;;;;;;;;2084650;28;20438;-77
2023/02/12 00:12:55;;;;;;;5.57;2.70;;;;;;;;;;2084916;28;20478;-76
2023/02/12 00:14:13;;;;;;;3.80;2.17;;;;;;;;;;2081242;28;20030;-78
2023/02/12 00:15:33;;;;;;;4.70;2.05;;;;;;;;;;2082663;28;20033;-76
2023/02/12 00:16:52;;;;;;;5.45;1.85;;;;;;;;;;2073119;28;20457;-76
2023/02/12 00:18:11;;;;;;;6.53;1.98;;;;;;;;;;2086336;28;20033;-76
2023/02/12 00:19:30;;;;;;;5.40;2.00;;;;;;;;;;2085438;28;20447;-75
2023/02/12 00:20:49;;;;;;;5.30;2.00;;;;;;;;;;2084084;28;20045;-75
2023/02/12 00:22:08;;;;;;;7.78;2.10;;;;;;;;;;2083048;28;20095;-75
2023/02/12 00:23:28;;;;;;;4.05;1.80;;;;;;;;;;2083536;28;20105;-76
2023/02/12 00:24:47;;;;;;;4.15;2.00;;;;;;;;;;2085130;28;20028;-76
2023/02/12 00:26:06;;;;;;;5.40;1.80;;;;;;;;;;2086329;28;20089;-76
2023/02/12 00:27:25;;;;;;;3.63;1.90;;;;;;;;;;2083990;28;20036;-78
2023/02/12 00:28:44;;;;;;;2.92;1.70;;;;;;;;;;2085548;28;20059;-76
2023/02/12 00:30:03;;;;;;;2.85;1.50;;;;;;;;;;2083118;28;20393;-77
2023/02/12 00:31:24;;;;;;;7.28;1.63;;;;;;;;;;2084461;28;20032;-77
2023/02/12 00:32:46;;;;;;;5.38;1.52;;;;;;;;;;2083105;28;20029;-76
2023/02/12 00:34:05;;;;;;;4.03;1.60;;;;;;;;;;2085561;28;20033;-76
2023/02/12 00:35:24;;;;;;;7.07;1.80;;;;;;;;;;2083621;28;20100;-77
2023/02/12 00:36:43;;;;;;;2.95;1.58;;;;;;;;;;2084750;28;20038;-76
2023/02/12 00:38:02;;;;;;;3.85;1.80;;;;;;;;;;2081820;28;20034;-78
2023/02/12 00:39:21;;;;;;;4.00;1.65;;;;;;;;;;2080880;28;20026;-77
2023/02/12 00:40:40;;;;;;;5.60;2.13;;;;;;;;;;2087301;28;20458;-78
2023/02/12 00:41:59;;;;;;;1.98;1.77;;;;;;;;;;2087951;28;20053;-76
2023/02/12 00:43:19;;;;;;;2.45;1.85;;;;;;;;;;2084498;28;20038;-76
2023/02/12 00:44:41;;;;;;;4.97;1.90;;;;;;;;;;2078761;28;20037;-76
2023/02/12 00:46:00;;;;;;;6.05;1.83;;;;;;;;;;2085458;28;20044;-77
2023/02/12 00:47:19;;;;;;;4.32;1.65;;;;;;;;;;2082122;28;20041;-77
2023/02/12 00:48:38;;;;;;;6.03;1.67;;;;;;;;;;2087735;28;20497;-76
2023/02/12 00:49:57;;;;;;;3.67;1.70;;;;;;;;;;2084635;28;20025;-77
2023/02/12 00:51:16;;;;;;;3.83;1.83;;;;;;;;;;2082519;28;20037;-77
2023/02/12 00:52:36;;;;;;;3.70;1.60;;;;;;;;;;2082669;28;20026;-77
2023/02/12 00:53:56;;;;;;;3.75;1.92;;;;;;;;;;2084064;28;20030;-78
2023/02/12 00:55:15;;;;;;;3.53;1.75;;;;;;;;;;2085229;28;20069;-77
2023/02/12 00:56:34;;;;;;;7.93;2.17;;;;;;;;;;2085332;28;20033;-76
2023/02/12 00:57:52;;;;;;;3.58;1.80;;;;;;;;;;2085468;28;20025;-76
2023/02/12 00:59:11;;;;;;;2.70;1.40;;;;;;;;;;2084525;28;20476;-76
2023/02/12 01:00:30;;;;;;;3.78;1.70;;;;;;;;;;2082535;28;20057;-76
2023/02/12 01:01:49;;;;;;;4.00;1.52;;;;;;;;;;2084080;28;20434;-78
2023/02/12 01:03:09;;;;;;;3.15;1.50;;;;;;;;;;2085608;28;20026;-77
2023/02/12 01:04:27;;;;;;;5.28;2.00;;;;;;;;;;2084300;28;20068;-77
2023/02/12 01:05:46;;;;;;;6.57;2.00;;;;;;;;;;2084740;28;20060;-76
2023/02/12 01:07:05;;;;;;;3.00;1.90;;;;;;;;;;2084686;28;20029;-76
2023/02/12 01:08:24;;;;;;;4.00;1.60;;;;;;;;;;2085399;28;20120;-77
2023/02/12 01:09:43;;;;;;;3.17;1.40;;;;;;;;;;2085428;28;20030;-76
2023/02/12 01:11:03;;;;;;;3.33;1.88;;;;;;;;;;2085413;28;20028;-77
2023/02/12 01:12:22;;;;;;;5.13;1.92;;;;;;;;;;2085162;28;20029;-76
2023/02/12 01:13:41;;;;;;;4.63;1.73;;;;;;;;;;2083831;28;20406;-76
2023/02/12 01:15:00;;;;;;;4.30;1.90;;;;;;;;;;2088004;28;20103;-77
2023/02/12 01:16:21;;;;;;;6.00;1.55;;;;;;;;;;2087269;28;20017;-77
2023/02/12 01:17:40;;;;;;;5.30;2.03;;;;;;;;;;2084379;28;20037;-76
2023/02/12 01:18:59;;;;;;;1.30;1.20;;;;;;;;;;2085602;28;20042;-76
2023/02/12 01:20:19;;;;;;;6.38;1.48;;;;;;;;;;2084355;28;20033;-76
2023/02/12 01:21:38;;;;;;;4.07;1.67;;;;;;;;;;2085617;28;20502;-77
2023/02/12 01:22:57;;;;;;;2.45;1.30;;;;;;;;;;2084682;28;20096;-77
2023/02/12 01:24:16;;;;;;;6.07;1.52;;;;;;;;;;2086407;28;20032;-76
2023/02/12 01:25:37;;;;;;;5.85;1.40;;;;;;;;;;2084869;28;20478;-77
2023/02/12 01:26:55;;;;;;;6.35;1.75;;;;;;;;;;2083289;28;20513;-76
2023/02/12 01:28:14;;;;;;;3.00;1.55;;;;;;;;;;2084381;28;20120;-76
2023/02/12 01:29:33;;;;;;;3.05;1.52;;;;;;;;;;2085600;28;20025;-76
2023/02/12 01:30:52;;;;;;;3.10;1.38;;;;;;;;;;2086945;28;20021;-76
2023/02/12 01:32:11;;;;;;;2.78;1.30;;;;;;;;;;2083824;28;20025;-76
2023/02/12 01:33:30;;;;;;;3.17;1.60;;;;;;;;;;2083627;28;20038;-78
2023/02/12 01:34:49;;;;;;;4.93;1.42;;;;;;;;;;2083297;28;20136;-76
2023/02/12 01:36:09;;;;;;;4.10;1.50;;;;;;;;;;2084654;28;20042;-76
2023/02/12 01:37:27;;;;;;;4.20;1.50;;;;;;;;;;2077102;28;20038;-76
2023/02/12 01:38:47;;;;;;;4.03;1.35;;;;;;;;;;2082120;28;20025;-77
2023/02/12 01:40:07;;;;;;;3.28;1.23;;;;;;;;;;2083457;28;20489;-76
2023/02/12 01:41:27;;;;;;;3.03;1.20;;;;;;;;;;2085711;28;20037;-76
2023/02/12 01:42:46;;;;;;;3.88;1.65;;;;;;;;;;2084261;28;20064;-76
2023/02/12 01:44:06;;;;;;;3.25;1.40;;;;;;;;;;2082774;28;20073;-77
2023/02/12 01:45:28;;;;;;;1.90;0.95;;;;;;;;;;2082816;28;20101;-76
2023/02/12 01:46:48;;;;;;;3.55;1.83;;;;;;;;;;2092722;28;20032;-76
2023/02/12 01:48:08;;;;;;;1.33;1.10;;;;;;;;;;2087932;28;20030;-76
2023/02/12 01:49:37;;;;;;;2.42;1.17;;;;;;;;;;2084247;28;20503;-76
2023/02/12 01:50:57;;;;;;;1.30;1.10;;;;;;;;;;2083510;28;20112;-76
2023/02/12 01:52:20;;;;;;;1.63;1.17;;;;;;;;;;2085222;28;20025;-76
2023/02/12 01:53:45;;;;;;;2.30;1.33;;;;;;;;;;2083114;28;20060;-76
2023/02/12 01:55:07;;;;;;;2.67;0.98;;;;;;;;;;2084552;28;20018;-76
2023/02/12 01:56:26;;;;;;;3.65;1.40;;;;;;;;;;2083807;28;20045;-77
2023/02/12 01:57:47;;;;;;;3.03;1.33;;;;;;;;;;2085306;28;20421;-77
2023/02/12 01:59:06;;;;;;;2.15;1.17;;;;;;;;;;2083948;28;20029;-76
2023/02/12 02:00:26;;;;;;;2.05;1.10;;;;;;;;;;2084239;28;20034;-76
2023/02/12 02:01:45;;;;;;;2.50;1.00;;;;;;;;;;2083953;28;20513;-76
2023/02/12 02:03:04;;;;;;;4.40;1.30;;;;;;;;;;2084666;28;20033;-76
2023/02/12 02:04:26;;;;;;;3.30;1.35;;;;;;;;;;2082945;28;20108;-77
2023/02/12 02:05:56;;;;;;;1.95;1.17;;;;;;;;;;2084286;28;20060;-78
2023/02/12 02:07:15;;;;;;;5.57;1.50;;;;;;;;;;2085508;28;20037;-75
2023/02/12 02:08:35;;;;;;;4.55;1.23;;;;;;;;;;2083933;28;20029;-76
2023/02/12 02:09:55;;;;;;;3.70;1.15;;;;;;;;;;2072640;28;20033;-76
2023/02/12 02:14:32;;;;;;;3.67;1.40;;;;;;;;;;2085162;28;20033;-76
2023/02/12 02:15:55;;;;;;;4.60;0.90;;;;;;;;;;2086058;28;20049;-76
2023/02/12 02:17:22;;;;;;;2.63;0.95;;;;;;;;;;2084665;28;20247;-75
2023/02/12 02:18:47;;;;;;;4.80;1.40;;;;;;;;;;2084418;28;20025;-77
2023/02/12 02:20:24;;;;;;;4.85;1.13;;;;;;;;;;2085052;28;20490;-75
2023/02/12 02:21:45;;;;;;;2.92;1.15;;;;;;;;;;2085026;28;20053;-75
2023/02/12 02:23:29;;;;;;;1.70;1.20;;;;;;;;;;2080774;28;20030;-76
2023/02/12 02:25:01;;;;;;;2.47;1.20;;;;;;;;;;2084944;28;20033;-76
2023/02/12 02:26:38;;;;;;;5.90;1.77;;;;;;;;;;2084294;28;20073;-78
2023/02/12 02:28:05;;;;;;;3.17;1.20;;;;;;;;;;2086416;28;20041;-77
2023/02/12 02:29:42;;;;;;;5.05;1.02;;;;;;;;;;2084522;28;20032;-76
2023/02/12 02:31:05;;;;;;;5.13;1.52;;;;;;;;;;2084573;28;20033;-75
2023/02/12 02:32:26;;;;;;;6.07;1.88;;;;;;;;;;2083337;28;20038;-75
2023/02/12 02:33:56;;;;;;;4.20;1.40;;;;;;;;;;2083921;28;20402;-76
2023/02/12 02:35:21;;;;;;;5.15;1.35;;;;;;;;;;2082716;28;20033;-77
2023/02/12 02:36:52;;;;;;;1.67;0.98;;;;;;;;;;2082351;28;20025;-76
2023/02/12 02:38:29;;;;;;;2.47;1.40;;;;;;;;;;2082942;28;20029;-74
2023/02/12 02:39:51;;;;;;;2.30;0.82;;;;;;;;;;2076323;28;20121;-76
2023/02/12 02:41:27;;;;;;;3.00;0.95;;;;;;;;;;2083316;28;20029;-75
2023/02/12 02:42:50;;;;;;;2.25;1.20;;;;;;;;;;2078828;28;20029;-75
2023/02/12 02:44:13;;;;;;;3.55;1.60;;;;;;;;;;2078361;28;20061;-76
2023/02/12 02:45:37;;;;;;;2.17;0.95;;;;;;;;;;2087485;28;20416;-76
2023/02/12 02:46:57;;;;;;;2.40;1.20;;;;;;;;;;2083108;28;20469;-76
2023/02/12 02:48:18;;;;;;;5.32;1.17;;;;;;;;;;2079983;28;20112;-76
2023/02/12 02:49:46;;;;;;;4.05;1.20;;;;;;;;;;2088333;28;20032;-76
2023/02/12 02:51:15;;;;;;;6.07;1.20;;;;;;;;;;2085019;28;20045;-76
2023/02/12 02:52:48;;;;;;;5.50;1.50;;;;;;;;;;2083078;28;20097;-76
2023/02/12 02:54:22;;;;;;;2.55;1.10;;;;;;;;;;2082146;28;20030;-75
2023/02/12 02:55:49;;;;;;;4.88;1.65;;;;;;;;;;2085479;28;20466;-75
2023/02/12 02:57:13;;;;;;;3.65;1.13;;;;;;;;;;2082495;28;20042;-75
2023/02/12 02:58:41;;;;;;;4.68;1.13;;;;;;;;;;2082557;28;20038;-76
2023/02/12 03:00:04;;;;;;;2.17;1.20;;;;;;;;;;2081843;28;20026;-75
2023/02/12 03:01:28;;;;;;;3.20;0.98;;;;;;;;;;2082734;28;20045;-75
2023/02/12 03:02:49;;;;;;;3.35;0.80;;;;;;;;;;2083886;28;20026;-75
2023/02/12 03:04:20;;;;;;;3.53;1.00;;;;;;;;;;2084222;28;20034;-75
2023/02/12 03:05:41;;;;;;;5.05;1.00;;;;;;;;;;2084755;28;20037;-75
2023/02/12 03:07:11;;;;;;;3.58;1.17;;;;;;;;;;2084826;28;20104;-75
2023/02/12 03:08:33;;;;;;;3.85;1.20;;;;;;;;;;2087912;28;20490;-75
2023/02/12 03:09:57;;;;;;;3.35;1.00;;;;;;;;;;2085278;28;20068;-76
2023/02/12 03:11:27;;;;;;;2.42;1.00;;;;;;;;;;2085021;28;20637;-75
2023/02/12 03:13:06;;;;;;;2.30;0.85;;;;;;;;;;2090881;28;20058;-76
2023/02/12 03:14:37;;;;;;;3.10;0.93;;;;;;;;;;2081708;28;20025;-75
2023/02/12 03:16:01;;;;;;;3.75;1.23;;;;;;;;;;2082789;28;20021;-76
2023/02/12 03:17:23;;;;;;;3.33;0.93;;;;;;;;;;2086018;28;20033;-78
2023/02/12 03:18:44;;;;;;;3.13;0.93;;;;;;;;;;2082577;28;20044;-75
2023/02/12 03:20:09;;;;;;;3.38;1.13;;;;;;;;;;2083431;28;20513;-75
2023/02/12 03:21:32;;;;;;;2.22;1.00;;;;;;;;;;2084060;28;20104;-75
2023/02/12 03:22:54;;;;;;;1.95;0.90;;;;;;;;;;2083551;28;20041;-76
2023/02/12 03:24:29;;;;;;;2.83;1.10;;;;;;;;;;2083764;28;20026;-76
2023/02/12 03:25:52;;;;;;;2.08;0.88;;;;;;;;;;2084393;28;20112;-75
2023/02/12 03:27:31;;;;;;;2.08;1.30;;;;;;;;;;2081922;28;20056;-75
2023/02/12 03:28:51;;;;;;;2.65;0.95;;;;;;;;;;2082182;28;20531;-75
2023/02/12 03:30:10;;;;;;;2.00;1.10;;;;;;;;;;2090300;28;20044;-75
2023/02/12 03:31:34;;;;;;;3.67;1.15;;;;;;;;;;2083790;28;20029;-75
2023/02/12 03:32:54;;;;;;;4.22;1.25;;;;;;;;;;2083621;28;20029;-75
2023/02/12 03:34:18;;;;;;;4.18;1.30;;;;;;;;;;2081995;28;20037;-76
2023/02/12 03:35:40;;;;;;;2.80;1.23;;;;;;;;;;2084385;28;20390;-77
2023/02/12 03:37:02;;;;;;;2.05;1.42;;;;;;;;;;2082614;28;20028;-75
2023/02/12 03:38:56;;;;;;;4.88;1.20;;;;;;;;;;2083519;28;20014;-76
2023/02/12 03:40:18;;;;;;;1.77;1.33;;;;;;;;;;2073785;28;20029;-76
2023/02/12 03:41:46;;;;;;;2.00;1.27;;;;;;;;;;2072317;28;20959;-76
2023/02/12 03:43:14;;;;;;;3.35;1.08;;;;;;;;;;2081921;28;20510;-77
2023/02/12 03:44:36;;;;;;;5.60;1.13;;;;;;;;;;2084100;28;20041;-77
2023/02/12 03:46:01;;;;;;;2.70;1.73;;;;;;;;;;2085897;28;20041;-75
2023/02/12 03:47:26;;;;;;;4.75;1.10;;;;;;;;;;2085087;28;20037;-76
2023/02/12 03:48:55;;;;;;;4.32;0.80;;;;;;;;;;2092743;28;20052;-75
2023/02/12 03:50:43;;;;;;;3.83;1.10;;;;;;;;;;2086744;28;20033;-77
2023/02/12 03:52:03;;;;;;;4.28;0.95;;;;;;;;;;2080493;28;20030;-78
2023/02/12 03:53:23;;;;;;;2.38;1.08;;;;;;;;;;2084095;28;20025;-75
2023/02/12 03:54:42;;;;;;;2.78;0.90;;;;;;;;;;2083904;28;20033;-76
2023/02/12 03:56:23;;;;;;;4.15;1.08;;;;;;;;;;2084834;28;20030;-76
2023/02/12 03:57:44;;;;;;;5.50;1.45;;;;;;;;;;2085976;28;20389;-76
2023/02/12 03:59:04;;;;;;;2.80;0.73;;;;;;;;;;2086565;28;20347;-77
2023/02/12 04:00:24;;;;;;;1.70;0.70;;;;;;;;;;2083747;28;20026;-76
2023/02/12 04:01:43;;;;;;;5.47;1.30;;;;;;;;;;2085164;28;20589;-77
2023/02/12 04:03:02;;;;;;;3.50;0.90;;;;;;;;;;2086064;28;20033;-75
2023/02/12 04:04:22;;;;;;;3.65;1.00;;;;;;;;;;2084895;28;20037;-77
2023/02/12 04:05:41;;;;;;;4.07;1.10;;;;;;;;;;2084775;28;20052;-78
2023/02/12 04:07:00;;;;;;;2.65;0.90;;;;;;;;;;2083663;28;20033;-77
2023/02/12 04:08:19;;;;;;;2.63;1.20;;;;;;;;;;2084941;28;20496;-78
2023/02/12 04:09:38;;;;;;;1.35;0.82;;;;;;;;;;2083999;28;20101;-78
2023/02/12 04:11:13;;;;;;;4.00;1.20;;;;;;;;;;2081105;28;20033;-76
2023/02/12 04:12:35;;;;;;;5.32;1.02;;;;;;;;;;2083397;28;20040;-76
2023/02/12 04:13:57;;;;;;;2.03;0.85;;;;;;;;;;2084913;28;20108;-76
2023/02/12 04:15:34;;;;;;;3.28;1.02;;;;;;;;;;2080758;28;20026;-76
2023/02/12 04:17:02;;;;;;;1.45;0.90;;;;;;;;;;2084025;28;20025;-76
2023/02/12 04:18:41;;;;;;;3.10;1.05;;;;;;;;;;2084296;28;20022;-77
2023/02/12 04:20:02;;;;;;;2.85;1.10;;;;;;;;;;2091222;28;20583;-76
2023/02/12 04:21:28;;;;;;;1.77;0.80;;;;;;;;;;2087641;28;20092;-76
2023/02/12 04:22:53;;;;;;;2.55;1.02;;;;;;;;;;2085421;28;20025;-76
2023/02/12 04:24:30;;;;;;;5.28;1.27;;;;;;;;;;2085881;28;20037;-75
2023/02/12 04:26:01;;;;;;;5.60;0.82;;;;;;;;;;2089853;28;20041;-76
2023/02/12 04:27:39;;;;;;;4.15;1.15;;;;;;;;;;2085734;28;20045;-76
2023/02/12 04:29:01;;;;;;;2.58;1.27;;;;;;;;;;2085175;28;20025;-76
2023/02/12 04:30:23;;;;;;;5.38;1.08;;;;;;;;;;2079830;28;20037;-76
2023/02/12 04:31:50;;;;;;;4.18;1.02;;;;;;;;;;2082130;28;20041;-76
2023/02/12 04:33:13;;;;;;;3.65;0.80;;;;;;;;;;2084523;28;20037;-76
2023/02/12 04:34:41;;;;;;;4.30;1.10;;;;;;;;;;2083050;28;20394;-76
2023/02/12 04:36:05;;;;;;;2.20;1.23;;;;;;;;;;2086297;28;20029;-77
2023/02/12 04:37:35;;;;;;;4.32;1.20;;;;;;;;;;2085413;28;20103;-77
2023/02/12 04:38:57;;;;;;;2.38;1.33;;;;;;;;;;2085307;28;20390;-76
2023/02/12 04:40:17;;;;;;;4.75;1.30;;;;;;;;;;2084072;28;20029;-76
2023/02/12 04:41:37;;;;;;;1.77;0.63;;;;;;;;;;2080676;28;20021;-76
2023/02/12 04:42:56;;;;;;;0.75;0.70;;;;;;;;;;2086118;28;20027;-75
2023/02/12 04:44:16;;;;;;;2.58;0.93;;;;;;;;;;2083233;28;20083;-77
2023/02/12 04:45:36;;;;;;;3.05;1.00;;;;;;;;;;2077921;28;20041;-76
2023/02/12 04:46:55;;;;;;;2.65;1.35;;;;;;;;;;2083583;28;20026;-79
2023/02/12 04:48:14;;;;;;;2.30;0.98;;;;;;;;;;2084117;28;20029;-76
2023/02/12 04:49:33;;;;;;;3.78;1.05;;;;;;;;;;2084413;28;20493;-75
2023/02/12 04:50:52;;;;;;;3.95;0.95;;;;;;;;;;2085139;28;20037;-75
2023/02/12 04:52:11;;;;;;;2.95;1.25;;;;;;;;;;2079770;28;20526;-75
2023/02/12 04:53:29;;;;;;;2.67;0.90;;;;;;;;;;2084463;28;20041;-76
2023/02/12 04:54:49;;;;;;;1.00;0.75;;;;;;;;;;2084428;28;20069;-76
2023/02/12 04:56:10;;;;;;;3.38;1.02;;;;;;;;;;2084220;28;20025;-75
2023/02/12 04:57:29;;;;;;;5.65;1.20;;;;;;;;;;2082004;28;20483;-76
2023/02/12 04:58:48;;;;;;;3.05;0.88;;;;;;;;;;2084032;28;20037;-76
2023/02/12 05:00:08;;;;;;;5.70;1.23;;;;;;;;;;2082864;28;20053;-75
2023/02/12 05:01:27;;;;;;;3.80;1.50;;;;;;;;;;2085615;28;20026;-75
2023/02/12 05:02:46;;;;;;;3.17;1.10;;;;;;;;;;2084327;28;20025;-75
2023/02/12 05:04:06;;;;;;;5.57;1.23;;;;;;;;;;2083984;28;20026;-76
2023/02/12 05:05:24;;;;;;;2.38;0.98;;;;;;;;;;2084889;28;20076;-75
2023/02/12 05:06:44;;;;;;;2.80;1.35;;;;;;;;;;2083472;28;20017;-78
2023/02/12 05:08:03;;;;;;;3.92;1.50;;;;;;;;;;2084127;28;20116;-75
2023/02/12 05:09:22;;;;;;;3.60;0.98;;;;;;;;;;2083567;28;20032;-76
2023/02/12 05:10:41;;;;;;;2.53;1.10;;;;;;;;;;2084599;28;20032;-76
2023/02/12 05:12:00;;;;;;;4.93;1.17;;;;;;;;;;2084680;28;20108;-76
2023/02/12 05:13:19;;;;;;;1.83;1.30;;;;;;;;;;2086373;28;20033;-76
2023/02/12 05:14:38;;;;;;;4.10;1.10;;;;;;;;;;2084463;28;20025;-76
2023/02/12 05:15:57;;;;;;;2.25;0.90;;;;;;;;;;2084905;28;20025;-76
2023/02/12 05:17:16;;;;;;;2.90;1.27;;;;;;;;;;2083543;28;20033;-76
2023/02/12 05:18:35;;;;;;;2.53;1.00;;;;;;;;;;2084182;28;20049;-76
2023/02/12 05:19:54;;;;;;;2.20;1.00;;;;;;;;;;2082744;28;20021;-77
2023/02/12 05:21:12;;;;;;;2.70;1.10;;;;;;;;;;2084210;28;20053;-76
2023/02/12 05:22:31;;;;;;;4.18;1.40;;;;;;;;;;2084654;28;20028;-77
2023/02/12 05:23:50;;;;;;;4.72;1.20;;;;;;;;;;2084844;28;20025;-76
2023/02/12 05:25:10;;;;;;;3.55;1.35;;;;;;;;;;2083882;28;20057;-76
2023/02/12 05:26:30;;;;;;;2.30;0.98;;;;;;;;;;2082567;28;20017;-76
2023/02/12 05:27:49;;;;;;;3.90;1.27;;;;;;;;;;2084790;28;20017;-75
2023/02/12 05:29:08;;;;;;;5.57;1.50;;;;;;;;;;2083361;28;20498;-75
2023/02/12 05:30:27;;;;;;;3.78;1.27;;;;;;;;;;2083443;28;20033;-76
2023/02/12 05:31:46;;;;;;;2.75;1.10;;;;;;;;;;2083914;28;20029;-76
2023/02/12 05:33:05;;;;;;;2.70;1.08;;;;;;;;;;2080903;28;20034;-77
2023/02/12 05:34:24;;;;;;;2.08;1.00;;;;;;;;;;2083099;28;20108;-76
2023/02/12 05:35:43;;;;;;;3.58;1.13;;;;;;;;;;2083480;28;20478;-76
2023/02/12 05:37:02;;;;;;;5.35;1.30;;;;;;;;;;2083375;28;20037;-77
2023/02/12 05:38:21;;;;;;;3.72;1.27;;;;;;;;;;2083962;28;20034;-76
2023/02/12 05:39:40;;;;;;;3.72;0.98;;;;;;;;;;2083719;28;20458;-77
2023/02/12 05:41:00;;;;;;;4.93;1.30;;;;;;;;;;2085019;28;20309;-78
2023/02/12 05:42:19;;;;;;;4.28;1.40;;;;;;;;;;2083359;28;20026;-76
2023/02/12 05:43:38;;;;;;;4.10;1.55;;;;;;;;;;2080147;28;20049;-76
2023/02/12 05:44:57;;;;;;;3.28;1.38;;;;;;;;;;2083796;28;20037;-76
2023/02/12 05:46:17;;;;;;;4.88;1.52;;;;;;;;;;2079738;28;20037;-76
2023/02/12 05:47:36;;;;;;;4.25;1.55;;;;;;;;;;2080889;28;20065;-76
2023/02/12 05:48:55;;;;;;;1.98;1.10;;;;;;;;;;2083630;28;20029;-76
2023/02/12 05:50:14;;;;;;;4.85;1.67;;;;;;;;;;2082550;28;20029;-76
2023/02/12 05:51:32;;;;;;;4.97;1.10;;;;;;;;;;2078252;28;20038;-77
2023/02/12 05:52:51;;;;;;;4.30;1.92;;;;;;;;;;2082128;28;20818;-77
2023/02/12 05:54:10;;;;;;;4.88;1.40;;;;;;;;;;2084775;28;20429;-77
2023/02/12 05:55:30;;;;;;;2.35;1.42;;;;;;;;;;2082548;28;20037;-76
2023/02/12 05:56:49;;;;;;;2.53;1.17;;;;;;;;;;2083267;28;20100;-77
2023/02/12 05:58:07;;;;;;;4.88;1.30;;;;;;;;;;2083553;28;20037;-76
2023/02/12 05:59:26;;;;;;;4.15;1.40;;;;;;;;;;2084292;28;20498;-77
2023/02/12 06:00:45;;;;;;;3.30;1.35;;;;;;;;;;2082432;28;20037;-76
2023/02/12 06:02:04;;;;;;;4.07;1.33;;;;;;;;;;2081108;28;20025;-76
2023/02/12 06:03:23;;;;;;;3.47;1.50;;;;;;;;;;2084988;28;20033;-76
2023/02/12 06:04:42;;;;;;;3.78;1.33;;;;;;;;;;2083622;28;20068;-76
2023/02/12 06:06:00;;;;;;;6.85;2.15;;;;;;;;;;2083427;28;20041;-77
2023/02/12 06:07:20;;;;;;;3.22;1.17;;;;;;;;;;2082225;28;20041;-75
2023/02/12 06:08:39;;;;;;;4.40;1.10;;;;;;;;;;2082269;28;20446;-77
2023/02/12 06:09:58;;;;;;;1.77;1.10;;;;;;;;;;2082638;28;20036;-77
2023/02/12 06:11:17;;;;;;;4.07;1.42;;;;;;;;;;2084418;28;20041;-76
2023/02/12 06:12:35;;;;;;;2.60;1.30;;;;;;;;;;2082839;28;20115;-77
2023/02/12 06:13:54;;;;;;;4.78;1.48;;;;;;;;;;2085573;28;20060;-76
2023/02/12 06:15:13;;;;;;;2.90;1.40;;;;;;;;;;2082361;28;20033;-76
2023/02/12 06:16:33;;;;;;;3.80;1.23;;;;;;;;;;2083662;28;20034;-76
2023/02/12 06:17:51;;;;;;;4.65;1.60;;;;;;;;;;2085397;28;20061;-76
2023/02/12 06:19:10;;;;;;;4.43;1.23;;;;;;;;;;2086038;28;20022;-75
2023/02/12 06:20:29;;;;;;;3.53;1.17;;;;;;;;;;2084668;28;20017;-76
2023/02/12 06:21:48;;;;;;;5.35;1.75;;;;;;;;;;2083250;28;20030;-76
2023/02/12 06:23:07;;;;;;;2.67;1.45;;;;;;;;;;2082669;28;20033;-76
2023/02/12 06:24:26;;;;;;;1.63;1.17;;;;;;;;;;2080448;28;20413;-76
2023/02/12 06:25:45;;;;;;;2.92;1.55;;;;;;;;;;2088888;28;20026;-76
2023/02/12 06:27:04;;;;;;;3.35;1.17;;;;;;;;;;2082151;28;20132;-76
2023/02/12 06:28:23;;;;;;;5.70;1.50;;;;;;;;;;2084477;28;20065;-76
2023/02/12 06:29:42;;;;;;;8.40;1.33;;;;;;;;;;2084704;28;20029;-77
2023/02/12 06:31:01;;;;;;;4.43;1.60;;;;;;;;;;2084191;28;20482;-77
2023/02/12 06:32:21;;;;;;;4.05;1.60;;;;;;;;;;2083848;28;20522;-76
2023/02/12 06:33:40;;;;;;;2.53;1.20;;;;;;;;;;2084521;28;20025;-77
2023/02/12 06:34:59;;;;;;;5.55;1.10;;;;;;;;;;2083349;28;20049;-77
2023/02/12 06:36:18;;;;;;;3.65;1.58;;;;;;;;;;2085587;28;20060;-76
2023/02/12 06:37:37;;;;;;;2.00;1.05;;;;;;;;;;2084233;28;20017;-76
2023/02/12 06:38:56;;;;;;;3.67;1.58;;;;;;;;;;2084292;28;20107;-77
2023/02/12 06:40:15;;;;;;;3.10;1.20;;;;;;;;;;2083360;28;20032;-76
2023/02/12 06:41:34;;;;;;;2.63;1.38;;;;;;;;;;2083098;28;20014;-77
2023/02/12 06:42:53;;;;;;;2.03;1.13;;;;;;;;;;2083004;28;20021;-76
2023/02/12 06:44:12;;;;;;;3.05;1.23;;;;;;;;;;2080913;28;20033;-76
2023/02/12 06:45:31;;;;;;;2.70;1.13;;;;;;;;;;2082511;28;20022;-77
2023/02/12 06:46:51;;;;;;;1.98;1.05;;;;;;;;;;2085954;28;20038;-76
2023/02/12 06:48:10;;;;;;;2.42;1.00;;;;;;;;;;2083211;28;20043;-76
2023/02/12 06:49:28;;;;;;;3.00;1.13;;;;;;;;;;2082225;28;20029;-77
2023/02/12 06:50:47;;;;;;;2.92;1.33;;;;;;;;;;2081605;28;20032;-76
2023/02/12 06:52:06;;;;;;;3.70;1.23;;;;;;;;;;2082228;28;20033;-76
2023/02/12 06:53:25;;;;;;;2.13;1.30;;;;;;;;;;2081854;28;20045;-76
2023/02/12 06:54:43;;;;;;;3.72;1.30;;;;;;;;;;2082324;28;20026;-77
2023/02/12 06:56:03;;;;;;;5.20;1.20;;;;;;;;;;2085246;28;20406;-76
2023/02/12 06:57:22;;;;;;;3.45;1.27;;;;;;;;;;2084318;28;20556;-76
2023/02/12 06:58:42;;;;;;;4.70;1.33;;;;;;;;;;2082598;28;20019;-77
2023/02/12 07:00:01;;;;;;;5.40;1.23;;;;;;;;;;2081503;28;20033;-77
2023/02/12 07:01:22;;;;;;;3.75;1.30;;;;;;;;;;2085375;28;20029;-76
2023/02/12 07:02:41;;;;;;;6.97;1.13;;;;;;;;;;2082829;28;20061;-76
2023/02/12 07:04:01;;;;;;;3.25;1.08;;;;;;;;;;2083334;28;20030;-77
2023/02/12 07:05:20;;;;;;;3.28;1.17;;;;;;;;;;2082478;28;20402;-76
2023/02/12 07:06:39;;;;;;;3.15;1.60;;;;;;;;;;2083332;28;20021;-77
2023/02/12 07:07:58;;;;;;;4.47;1.58;;;;;;;;;;2082270;28;20025;-76
2023/02/12 07:09:17;;;;;;;2.83;1.15;;;;;;;;;;2082701;28;21971;-75
2023/02/12 07:10:35;;;;;;;4.95;1.30;;;;;;;;;;2082812;28;20033;-76
2023/02/12 07:11:55;;;;;;;2.40;1.20;;;;;;;;;;2083993;28;20033;-76
2023/02/12 07:13:15;;;;;;;3.50;1.17;;;;;;;;;;2083341;28;20026;-76
2023/02/12 07:14:34;;;;;;;4.40;1.25;;;;;;;;;;2084546;28;20085;-76
2023/02/12 07:15:53;;;;;;;1.58;1.05;;;;;;;;;;2080958;28;20045;-76
2023/02/12 07:17:11;;;;;;;2.55;1.42;;;;;;;;;;2084006;28;20033;-77
2023/02/12 07:18:31;;;;;;;5.15;1.30;;;;;;;;;;2082994;28;20033;-76
2023/02/12 07:19:51;;;;;;;4.50;1.42;;;;;;;;;;2085099;28;20025;-76
2023/02/12 07:21:11;;;;;;;6.15;1.30;;;;;;;;;;2085787;28;20029;-76
2023/02/12 07:22:30;;;;;;;2.60;1.05;;;;;;;;;;2084922;28;20029;-76
2023/02/12 07:23:50;;;;;;;2.60;1.60;;;;;;;;;;2084650;28;20482;-76
2023/02/12 07:25:10;;;;;;;3.08;1.63;;;;;;;;;;2083203;28;20498;-76
2023/02/12 07:26:29;;;;;;;4.20;1.40;;;;;;;;;;2083968;28;20474;-76
2023/02/12 07:27:47;;;;;;;4.28;1.40;;;;;;;;;;2085644;28;20478;-76
2023/02/12 07:29:06;;;;;;;5.20;1.42;;;;;;;;;;2086625;28;20104;-76
2023/02/12 07:30:25;;;;;;;5.55;1.60;;;;;;;;;;2085687;28;20051;-76
2023/02/12 07:31:44;;;;;;;5.40;2.00;;;;;;;;;;2086582;28;20029;-76
2023/02/12 07:33:03;;;;;;;1.98;1.10;;;;;;;;;;2085126;28;20029;-77
2023/02/12 07:34:22;;;;;;;4.90;1.52;;;;;;;;;;2084347;28;20068;-77
2023/02/12 07:35:41;;;;;;;4.60;1.60;;;;;;;;;;2082707;28;20026;-76
2023/02/12 07:36:59;;;;;;;3.78;1.45;;;;;;;;;;2084983;28;20041;-76
2023/02/12 07:38:19;;;;;;;5.60;1.80;;;;;;;;;;2083696;28;20030;-77
2023/02/12 07:39:38;;;;;;;2.95;1.58;;;;;;;;;;2084104;28;20030;-76
2023/02/12 07:41:07;;;;;;;2.50;1.40;;;;;;;;;;2080556;28;20049;-76
2023/02/12 07:42:28;;;;;;;5.43;1.40;;;;;;;;;;2083926;28;20514;-76
2023/02/12 07:43:48;;;;;;;3.10;1.70;;;;;;;;;;2085096;28;20037;-79
2023/02/12 07:45:08;;;;;;;4.85;1.20;;;;;;;;;;2085575;28;20040;-77
2023/02/12 07:46:29;;;;;;;5.15;1.30;;;;;;;;;;2081643;28;20029;-77
2023/02/12 07:47:47;;;;;;;2.78;1.50;;;;;;;;;;2081821;28;20037;-77
2023/02/12 07:49:09;;;;;;;9.20;1.55;;;;;;;;;;2084999;28;20034;-76
2023/02/12 07:50:28;;;;;;;5.13;1.60;;;;;;;;;;2084813;28;20025;-77
2023/02/12 07:51:48;;;;;;;7.45;1.77;;;;;;;;;;2085502;28;20060;-77
2023/02/12 07:53:06;;;;;;;4.20;1.48;;;;;;;;;;2082906;28;20029;-75
2023/02/12 07:54:25;;;;;;;3.03;1.35;;;;;;;;;;2089907;28;20025;-77
2023/02/12 07:55:45;;;;;;;3.47;1.70;;;;;;;;;;2084875;28;20582;-76
2023/02/12 07:57:04;;;;;;;2.92;1.52;;;;;;;;;;2085443;28;20063;-76
2023/02/12 07:58:23;;;;;;;4.72;1.42;;;;;;;;;;2083602;28;20021;-75
2023/02/12 07:59:42;;;;;;;5.07;1.30;;;;;;;;;;2083350;28;20101;-76
2023/02/12 08:01:09;;;;;;;3.33;1.60;;;;;;;;;;2084522;28;20033;-76
2023/02/12 08:02:28;;;;;;;4.07;1.48;;;;;;;;;;2083977;28;20060;-76
2023/02/12 08:03:48;;;;;;;4.80;1.48;;;;;;;;;;2085803;28;20022;-76
2023/02/12 08:05:06;;;;;;;4.15;1.38;;;;;;;;;;2085790;28;20117;-76
2023/02/12 08:06:27;;;;;;;4.93;1.33;;;;;;;;;;2083433;28;20545;-76
2023/02/12 08:07:46;;;;;;;8.00;1.60;;;;;;;;;;2083608;28;20030;-76
2023/02/12 08:09:07;;;;;;;4.10;1.38;;;;;;;;;;2084628;28;20033;-76
2023/02/12 08:10:26;;;;;;;4.63;2.10;;;;;;;;;;2090189;28;20429;-76
2023/02/12 08:11:45;;;;;;;3.78;1.50;;;;;;;;;;2083600;28;20033;-76